• Join FlightAware (Why Join?)
  • Login
  • US Flag 
01:27AM EST


 

Airport Tracker/Info


-or-


 

Live Flight TrackerFlight Track Log ✈ ASQ4577 ✈ 03-Jun-2013 ✈ KCLE - KALB

Flight Track Log - Related Links

Times and Time Zones

All times are in EDT time to prevent confusion due to time zone crossing. See the ASQ4577 flight status page for this flight to view local times or setup timezone preferences in your user account.

Time Position Orientation Groundspeed Altitude Reporting Facility
EDT Latitude Longitude Course Direction KTS MPH feet Rate Location/Type
08:56PM 41.4217 -81.8347 73° East 163 188 1,800  Level Cleveland Center
08:58PM 41.4994 -81.7753 30° Northeast 216 249 4,800 2,040 Climbing Cleveland Center
08:59PM 41.6771 -81.5729 37° Northeast  Level FlightAware Approximate
08:59PM 41.5664 -81.7267 29° Northeast 240 276 7,300  Level Cleveland Center
09:00PM 41.7703 -81.4798 37° Northeast  Level FlightAware Approximate
09:00PM 41.6336 -81.6750 30° Northeast 259 298 9,700  Level Cleveland Center
09:01PM 41.8366 -81.3669 75° East  Level FlightAware Approximate
09:01PM 41.7011 -81.6150 34° Northeast 279 321 11,300  Level Cleveland Center
09:02PM 41.8581 -81.2150 73° East  Level FlightAware Approximate
09:02PM 41.7456 -81.5100 60° Northeast 316 364 12,500  Level Cleveland Center
09:03PM 41.7717 -81.3739 76° East 350 403 13,600 1,080 Climbing Cleveland Center
09:04PM 41.7956 -81.2264 78° East 390 449 14,700 1,200 Climbing Cleveland Center
09:05PM 41.8214 -81.0819 76° East 400 460 16,100 1,140 Climbing Cleveland Center
09:06PM 41.8469 -80.9456 76° East 410 472 17,000 900 Climbing Cleveland Center
09:07PM 41.8703 -80.7867 79° East 421 484 18,000 1,020 Climbing Cleveland Center
09:08PM 41.8975 -80.6278 77° East 427 491 19,100 1,080 Climbing Cleveland Center
09:09PM 41.9286 -80.4631 76° East 444 511 20,200 1,080 Climbing Cleveland Center
09:10PM 41.9556 -80.2900 78° East 462 532 21,300 1,200 Climbing Cleveland Center
09:11PM 41.9842 -80.1194 77° East 469 540 22,700 1,380 Climbing Cleveland Center
09:12PM 42.0125 -79.9517 77° East 469 540 24,100 1,380 Climbing Cleveland Center
09:13PM 42.0364 -79.7808 79° East 469 540 25,500 1,380 Climbing Cleveland Center
09:14PM 42.0642 -79.6069 78° East 469 540 26,900 720 Climbing Cleveland Center
09:15PM 42.0958 -79.4164 77° East 469 540 27,000  Climbing Cleveland Center
09:16PM 42.1211 -79.2422 79° East 469 540 27,000  Level Cleveland Center
09:17PM 42.1481 -79.0708 78° East 469 540 27,000  Level Cleveland Center
09:18PM 42.1747 -78.8936 78° East 474 545 27,000  Level Cleveland Center
09:19PM 42.2053 -78.7078 77° East 484 557 27,000  Level Cleveland Center
09:20PM 42.2333 -78.5164 79° East 496 571 27,000  Level Cleveland Center
09:21PM 42.2608 -78.3219 79° East 510 587 27,000  Level Cleveland Center
09:22PM 42.2881 -78.1272 79° East 516 594 27,000  Level Cleveland Center
09:23PM 42.3153 -77.9353 79° East 521 600 27,000  Level Cleveland Center
09:24PM 42.3439 -77.7400 79° East 527 606 27,000  Level Cleveland Center
09:25PM 42.3703 -77.5450 80° East 527 606 27,000  Level Cleveland Center
09:26PM 42.3983 -77.3497 79° East 527 606 27,000  Level Cleveland Center
09:27PM 42.4236 -77.1514 80° East 527 606 27,000  Level Cleveland Center
09:28PM 42.4606 -76.8536 80° East 541 623 27,000  Level Boston Center
09:29PM 42.4806 -76.6550 82° East 536 617 27,000  Level Boston Center
09:30PM 42.5022 -76.4592 81° East 536 617 27,000  Level Boston Center
09:31PM 42.5222 -76.2408 83° East 531 611 27,000  Level Boston Center
09:32PM 42.5433 -76.0475 82° East 531 611 27,000  Level Boston Center
09:33PM 42.5619 -75.8456 83° East 531 611 27,000 -60 Level Boston Center
09:34PM 42.5822 -75.6492 82° East 531 611 26,900 -1,080 Descending Boston Center
09:35PM 42.6019 -75.4611 82° East 519 597 24,900 -2,400 Descending Boston Center
09:36PM 42.6194 -75.2675 83° East 519 597 22,100 -2,700 Descending Boston Center
09:37PM 42.6361 -75.0958 82° East 495 570 19,500 -2,760 Descending Boston Center
09:38PM 42.6419 -75.0283 83° East 475 547 18,400 -2,820 Descending Boston Center
09:38PM 42.6506 -74.9244 84° East 473 544 16,700 -2,580 Descending Boston Center
09:39PM 42.6639 -74.7781 83° East 454 522 14,200 -2,400 Descending Boston Center
09:40PM 42.6797 -74.6147 82° East 407 468 12,000 -1,800 Descending Boston Center
09:42PM 42.6719 -74.4678 94° East 339 390 10,500 -1,200 Descending Boston Center
09:42PM 42.6550 -74.3656 103° East 325 374 9,600 -1,140 Descending Boston Center
09:43PM 42.6381 -74.2633 103° East 299 344 8,400 -1,560 Descending Boston Center
09:44PM 42.6169 -74.1469 104° East 299 344 6,500 -1,800 Descending Boston Center
09:45PM 42.5994 -74.0450 103° East 294 338 4,900 -1,620 Descending Boston Center
09:46PM 42.5936 -74.0167 106° East 284 327 4,500 -1,440 Descending Boston Center
09:46PM 42.5800 -73.9431 104° East 283 326 3,500 -1,380 Descending Boston Center
09:47PM 42.5764 -73.9175 101° East 264 304 3,100 -720 Descending Boston Center
09:47PM 42.5856 -73.8528 79° East 251 289 2,800 -600 Descending Boston Center
09:48PM 42.5919 -73.8333 66° East 222 255 2,500 -1,140 Descending Boston Center